CheckWX is a tool to help pilots better visualize weather data.  It is not intended as a substitute for an official pre-flight weather briefing.

07:34:22 UTC

FAHS METAR
Hoedspruit Air Force Base Airport
Hoedspruit, South Africa
Current

34 mins ago

FAHS 210700Z AUTO 33004KT //// // ////// 23/04 Q1018
Observed
May-21 @ 07:00 UTC
Wind
  • 330° at 4 KTS
Visibility
Temperature
23°C / 73°F
Dewpoint
C / 39°F
Humidity
29%
Altimeter
30.06" Hg
Pressure
1017.92 hPa
Previous

2 hours ago

FAHS 210600Z AUTO 33003KT //// // ////// 17/04 Q1018
Observed
May-21 @ 06:00 UTC
Wind
  • 330° at 3 KTS
Visibility
Temperature
17°C / 63°F
Dewpoint
C / 39°F
Humidity
42%
Altimeter
30.06" Hg
Pressure
1017.92 hPa
Previous

3 hours ago

FAHS 210500Z AUTO 01003KT //// // ////// 14/04 Q1018
Observed
May-21 @ 05:00 UTC
Wind
  • 010° at 3 KTS
Visibility
Temperature
14°C / 57°F
Dewpoint
C / 39°F
Humidity
51%
Altimeter
30.06" Hg
Pressure
1017.92 hPa